sensor_id;sensor_type;location;lat;lon;timestamp;temperature;humidity
75838;SHT30;64480;52.040;113.502;2023-02-26T00:00:38;-10.72;56.95
75838;SHT30;64480;52.040;113.502;2023-02-26T00:04:01;-10.63;54.49
75838;SHT30;64480;52.040;113.502;2023-02-26T00:07:18;-11.03;53.78
75838;SHT30;64480;52.040;113.502;2023-02-26T00:10:36;-11.52;54.80
75838;SHT30;64480;52.040;113.502;2023-02-26T00:13:48;-11.36;56.26
75838;SHT30;64480;52.040;113.502;2023-02-26T00:17:27;-11.00;57.82
75838;SHT30;64480;52.040;113.502;2023-02-26T00:20:35;-10.65;57.66
75838;SHT30;64480;52.040;113.502;2023-02-26T00:23:52;-10.28;57.22
75838;SHT30;64480;52.040;113.502;2023-02-26T00:27:05;-9.76;56.88
75838;SHT30;64480;52.040;113.502;2023-02-26T00:30:17;-8.93;52.39
75838;SHT30;64480;52.040;113.502;2023-02-26T00:33:34;-8.48;48.93
75838;SHT30;64480;52.040;113.502;2023-02-26T00:40:37;-8.62;49.89
75838;SHT30;64480;52.040;113.502;2023-02-26T00:43:57;-8.26;49.56
75838;SHT30;64480;52.040;113.502;2023-02-26T00:55:04;-9.44;52.03
75838;SHT30;64480;52.040;113.502;2023-02-26T00:58:25;-9.51;52.76
75838;SHT30;64480;52.040;113.502;2023-02-26T01:01:44;-9.45;54.28
75838;SHT30;64480;52.040;113.502;2023-02-26T01:05:03;-9.51;54.72
75838;SHT30;64480;52.040;113.502;2023-02-26T01:08:23;-9.48;54.87
75838;SHT30;64480;52.040;113.502;2023-02-26T01:11:42;-9.41;55.17
75838;SHT30;64480;52.040;113.502;2023-02-26T01:15:02;-9.26;55.07
75838;SHT30;64480;52.040;113.502;2023-02-26T01:18:41;-9.16;55.19
75838;SHT30;64480;52.040;113.502;2023-02-26T01:22:12;-9.13;55.40
75838;SHT30;64480;52.040;113.502;2023-02-26T01:26:02;-9.09;55.54
75838;SHT30;64480;52.040;113.502;2023-02-26T01:29:25;-8.86;56.01
75838;SHT30;64480;52.040;113.502;2023-02-26T01:36:28;-8.48;55.92
75838;SHT30;64480;52.040;113.502;2023-02-26T01:43:18;-8.13;55.32
75838;SHT30;64480;52.040;113.502;2023-02-26T01:50:21;-7.95;55.44
75838;SHT30;64480;52.040;113.502;2023-02-26T01:53:50;-7.70;55.69
75838;SHT30;64480;52.040;113.502;2023-02-26T01:57:24;-7.67;54.32
75838;SHT30;64480;52.040;113.502;2023-02-26T02:00:48;-7.81;53.58
75838;SHT30;64480;52.040;113.502;2023-02-26T02:03:54;-7.82;55.32
75838;SHT30;64480;52.040;113.502;2023-02-26T02:07:13;-7.91;55.16
75838;SHT30;64480;52.040;113.502;2023-02-26T02:10:31;-7.95;54.94
75838;SHT30;64480;52.040;113.502;2023-02-26T02:17:50;-7.71;55.12
75838;SHT30;64480;52.040;113.502;2023-02-26T02:28:50;-7.55;53.58
75838;SHT30;64480;52.040;113.502;2023-02-26T02:36:06;-7.43;53.86
75838;SHT30;64480;52.040;113.502;2023-02-26T02:39:38;-7.46;53.34
75838;SHT30;64480;52.040;113.502;2023-02-26T02:43:21;-7.47;53.23
75838;SHT30;64480;52.040;113.502;2023-02-26T02:46:45;-7.43;52.76
75838;SHT30;64480;52.040;113.502;2023-02-26T02:50:10;-7.27;52.94
75838;SHT30;64480;52.040;113.502;2023-02-26T02:53:26;-7.03;52.90
75838;SHT30;64480;52.040;113.502;2023-02-26T02:56:52;-6.77;52.51
75838;SHT30;64480;52.040;113.502;2023-02-26T03:00:11;-6.47;51.77
75838;SHT30;64480;52.040;113.502;2023-02-26T03:06:59;-6.08;50.56
75838;SHT30;64480;52.040;113.502;2023-02-26T03:10:17;-5.90;49.83
75838;SHT30;64480;52.040;113.502;2023-02-26T03:13:39;-5.73;49.61
75838;SHT30;64480;52.040;113.502;2023-02-26T03:20:31;-5.39;48.80
75838;SHT30;64480;52.040;113.502;2023-02-26T03:24:23;-5.23;49.00
75838;SHT30;64480;52.040;113.502;2023-02-26T03:28:16;-5.04;48.71
75838;SHT30;64480;52.040;113.502;2023-02-26T03:35:20;-4.64;48.33
75838;SHT30;64480;52.040;113.502;2023-02-26T03:42:35;-4.07;47.07
75838;SHT30;64480;52.040;113.502;2023-02-26T03:45:43;-3.99;46.58
75838;SHT30;64480;52.040;113.502;2023-02-26T03:48:51;-3.84;49.01
75838;SHT30;64480;52.040;113.502;2023-02-26T03:52:09;-3.67;46.47
75838;SHT30;64480;52.040;113.502;2023-02-26T03:56:02;-3.52;47.70
75838;SHT30;64480;52.040;113.502;2023-02-26T03:59:34;-3.43;45.88
75838;SHT30;64480;52.040;113.502;2023-02-26T04:03:28;-3.19;45.53
75838;SHT30;64480;52.040;113.502;2023-02-26T04:06:50;-3.08;46.22
75838;SHT30;64480;52.040;113.502;2023-02-26T04:10:59;-2.83;45.94
75838;SHT30;64480;52.040;113.502;2023-02-26T04:14:21;-2.65;45.39
75838;SHT30;64480;52.040;113.502;2023-02-26T04:17:44;-2.38;44.39
75838;SHT30;64480;52.040;113.502;2023-02-26T04:21:47;-2.08;44.29
75838;SHT30;64480;52.040;113.502;2023-02-26T04:25:13;-1.97;44.05
75838;SHT30;64480;52.040;113.502;2023-02-26T04:28:42;-1.93;43.42
75838;SHT30;64480;52.040;113.502;2023-02-26T04:31:52;-1.83;44.09
75838;SHT30;64480;52.040;113.502;2023-02-26T04:35:41;-1.80;44.19
75838;SHT30;64480;52.040;113.502;2023-02-26T04:39:20;-1.77;43.51
75838;SHT30;64480;52.040;113.502;2023-02-26T04:43:03;-1.72;43.31
75838;SHT30;64480;52.040;113.502;2023-02-26T04:46:41;-1.63;44.26
75838;SHT30;64480;52.040;113.502;2023-02-26T04:49:59;-1.59;43.82
75838;SHT30;64480;52.040;113.502;2023-02-26T04:53:21;-1.52;44.26
75838;SHT30;64480;52.040;113.502;2023-02-26T04:56:40;-1.37;45.60
75838;SHT30;64480;52.040;113.502;2023-02-26T04:59:58;-1.25;44.16
75838;SHT30;64480;52.040;113.502;2023-02-26T05:03:19;-1.14;43.21
75838;SHT30;64480;52.040;113.502;2023-02-26T05:07:11;-0.96;44.22
75838;SHT30;64480;52.040;113.502;2023-02-26T05:10:39;-0.89;43.20
75838;SHT30;64480;52.040;113.502;2023-02-26T05:14:09;-0.76;42.88
75838;SHT30;64480;52.040;113.502;2023-02-26T05:17:27;-0.64;42.98
75838;SHT30;64480;52.040;113.502;2023-02-26T05:21:03;-0.44;42.98
75838;SHT30;64480;52.040;113.502;2023-02-26T05:24:23;-0.24;43.12
75838;SHT30;64480;52.040;113.502;2023-02-26T05:27:41;-0.07;42.59
75838;SHT30;64480;52.040;113.502;2023-02-26T05:30:59;0.07;41.50
75838;SHT30;64480;52.040;113.502;2023-02-26T05:34:29;0.25;42.59
75838;SHT30;64480;52.040;113.502;2023-02-26T05:37:51;0.40;41.45
75838;SHT30;64480;52.040;113.502;2023-02-26T05:41:10;0.56;40.92
75838;SHT30;64480;52.040;113.502;2023-02-26T05:44:36;0.63;40.48
75838;SHT30;64480;52.040;113.502;2023-02-26T05:47:55;0.80;41.06
75838;SHT30;64480;52.040;113.502;2023-02-26T05:51:33;0.91;40.48
75838;SHT30;64480;52.040;113.502;2023-02-26T05:54:52;1.01;40.61
75838;SHT30;64480;52.040;113.502;2023-02-26T05:58:09;1.13;40.62
75838;SHT30;64480;52.040;113.502;2023-02-26T06:01:26;1.24;40.44
75838;SHT30;64480;52.040;113.502;2023-02-26T06:04:43;1.36;40.22
75838;SHT30;64480;52.040;113.502;2023-02-26T06:08:02;1.42;39.99
75838;SHT30;64480;52.040;113.502;2023-02-26T06:11:42;1.52;39.88
75838;SHT30;64480;52.040;113.502;2023-02-26T06:15:07;1.58;40.36
75838;SHT30;64480;52.040;113.502;2023-02-26T06:18:32;1.63;39.90
75838;SHT30;64480;52.040;113.502;2023-02-26T06:21:56;1.70;39.91
75838;SHT30;64480;52.040;113.502;2023-02-26T06:25:18;1.81;40.40
75838;SHT30;64480;52.040;113.502;2023-02-26T06:28:48;1.96;39.67
75838;SHT30;64480;52.040;113.502;2023-02-26T06:32:06;2.10;40.04
75838;SHT30;64480;52.040;113.502;2023-02-26T06:35:25;2.22;39.05
75838;SHT30;64480;52.040;113.502;2023-02-26T06:38:36;2.32;39.31
75838;SHT30;64480;52.040;113.502;2023-02-26T06:41:56;2.46;38.76
75838;SHT30;64480;52.040;113.502;2023-02-26T06:45:02;2.56;38.60
75838;SHT30;64480;52.040;113.502;2023-02-26T06:48:07;2.69;38.53
75838;SHT30;64480;52.040;113.502;2023-02-26T06:51:11;2.76;38.65
75838;SHT30;64480;52.040;113.502;2023-02-26T06:54:16;2.73;39.02
75838;SHT30;64480;52.040;113.502;2023-02-26T06:57:25;2.76;40.27
75838;SHT30;64480;52.040;113.502;2023-02-26T07:00:31;2.91;39.43
75838;SHT30;64480;52.040;113.502;2023-02-26T07:03:55;3.01;39.43
75838;SHT30;64480;52.040;113.502;2023-02-26T07:07:12;3.18;39.47
75838;SHT30;64480;52.040;113.502;2023-02-26T07:10:42;3.34;40.29
75838;SHT30;64480;52.040;113.502;2023-02-26T07:13:50;3.51;39.05
75838;SHT30;64480;52.040;113.502;2023-02-26T07:17:07;3.63;38.49
75838;SHT30;64480;52.040;113.502;2023-02-26T07:20:26;3.76;38.76
75838;SHT30;64480;52.040;113.502;2023-02-26T07:23:32;3.81;38.17
75838;SHT30;64480;52.040;113.502;2023-02-26T07:26:49;3.87;37.47
75838;SHT30;64480;52.040;113.502;2023-02-26T07:29:54;4.00;37.14
75838;SHT30;64480;52.040;113.502;2023-02-26T07:33:00;4.00;37.51
75838;SHT30;64480;52.040;113.502;2023-02-26T07:36:09;4.01;37.92
75838;SHT30;64480;52.040;113.502;2023-02-26T07:39:29;4.04;38.08
75838;SHT30;64480;52.040;113.502;2023-02-26T07:42:53;4.17;36.79
75838;SHT30;64480;52.040;113.502;2023-02-26T07:46:38;4.27;36.86
75838;SHT30;64480;52.040;113.502;2023-02-26T07:50:06;4.35;36.55
75838;SHT30;64480;52.040;113.502;2023-02-26T07:53:48;4.56;36.33
75838;SHT30;64480;52.040;113.502;2023-02-26T07:57:15;4.74;35.79
75838;SHT30;64480;52.040;113.502;2023-02-26T08:00:32;4.88;36.19
75838;SHT30;64480;52.040;113.502;2023-02-26T08:03:37;4.97;35.85
75838;SHT30;64480;52.040;113.502;2023-02-26T08:06:42;4.95;35.28
75838;SHT30;64480;52.040;113.502;2023-02-26T08:10:03;4.91;35.33
75838;SHT30;64480;52.040;113.502;2023-02-26T08:13:12;4.88;35.98
75838;SHT30;64480;52.040;113.502;2023-02-26T08:16:20;4.76;35.74
75838;SHT30;64480;52.040;113.502;2023-02-26T08:19:39;4.76;35.63
75838;SHT30;64480;52.040;113.502;2023-02-26T08:22:52;4.73;36.17
75838;SHT30;64480;52.040;113.502;2023-02-26T08:26:10;4.70;36.32
75838;SHT30;64480;52.040;113.502;2023-02-26T08:29:19;4.67;36.21
75838;SHT30;64480;52.040;113.502;2023-02-26T08:32:24;4.67;36.65
75838;SHT30;64480;52.040;113.502;2023-02-26T08:35:48;4.56;37.79
75838;SHT30;64480;52.040;113.502;2023-02-26T08:39:08;4.48;40.12
75838;SHT30;64480;52.040;113.502;2023-02-26T08:42:25;4.46;37.57
75838;SHT30;64480;52.040;113.502;2023-02-26T08:45:37;4.39;37.31
75838;SHT30;64480;52.040;113.502;2023-02-26T08:49:03;4.34;39.28
75838;SHT30;64480;52.040;113.502;2023-02-26T08:52:51;4.27;42.81
75838;SHT30;64480;52.040;113.502;2023-02-26T08:56:00;4.07;42.20
75838;SHT30;64480;52.040;113.502;2023-02-26T08:59:05;3.89;43.89
75838;SHT30;64480;52.040;113.502;2023-02-26T09:02:23;3.91;42.03
75838;SHT30;64480;52.040;113.502;2023-02-26T09:05:41;3.80;41.19
75838;SHT30;64480;52.040;113.502;2023-02-26T09:09:05;3.79;43.29
75838;SHT30;64480;52.040;113.502;2023-02-26T09:12:52;3.70;43.53
75838;SHT30;64480;52.040;113.502;2023-02-26T09:16:17;3.58;42.38
75838;SHT30;64480;52.040;113.502;2023-02-26T09:19:42;3.46;43.91
75838;SHT30;64480;52.040;113.502;2023-02-26T09:23:11;3.32;44.68
75838;SHT30;64480;52.040;113.502;2023-02-26T09:26:30;3.19;47.04
75838;SHT30;64480;52.040;113.502;2023-02-26T09:29:47;3.07;48.35
75838;SHT30;64480;52.040;113.502;2023-02-26T09:33:04;3.01;46.67
75838;SHT30;64480;52.040;113.502;2023-02-26T09:36:14;2.89;47.08
75838;SHT30;64480;52.040;113.502;2023-02-26T09:39:34;2.76;47.77
75838;SHT30;64480;52.040;113.502;2023-02-26T09:43:29;2.55;47.34
75838;SHT30;64480;52.040;113.502;2023-02-26T09:47:27;2.38;47.63
75838;SHT30;64480;52.040;113.502;2023-02-26T09:51:11;2.21;47.14
75838;SHT30;64480;52.040;113.502;2023-02-26T09:55:08;2.01;48.71
75838;SHT30;64480;52.040;113.502;2023-02-26T09:58:44;1.83;50.72
75838;SHT30;64480;52.040;113.502;2023-02-26T10:09:52;1.32;50.97
75838;SHT30;64480;52.040;113.502;2023-02-26T10:16:30;1.01;52.91
75838;SHT30;64480;52.040;113.502;2023-02-26T10:19:43;0.89;53.91
75838;SHT30;64480;52.040;113.502;2023-02-26T10:26:36;0.61;54.88
75838;SHT30;64480;52.040;113.502;2023-02-26T10:37:15;0.35;54.58
75838;SHT30;64480;52.040;113.502;2023-02-26T10:44:12;0.25;56.32
75838;SHT30;64480;52.040;113.502;2023-02-26T10:50:59;0.10;56.92
75838;SHT30;64480;52.040;113.502;2023-02-26T10:57:39;-0.07;56.12
75838;SHT30;64480;52.040;113.502;2023-02-26T11:01:19;-0.17;57.17
75838;SHT30;64480;52.040;113.502;2023-02-26T11:04:27;-0.24;56.84
75838;SHT30;64480;52.040;113.502;2023-02-26T11:07:54;-0.30;57.58
75838;SHT30;64480;52.040;113.502;2023-02-26T11:11:08;-0.41;57.79
75838;SHT30;64480;52.040;113.502;2023-02-26T11:14:14;-0.54;56.52
75838;SHT30;64480;52.040;113.502;2023-02-26T11:17:32;-0.62;56.04
75838;SHT30;64480;52.040;113.502;2023-02-26T11:20:57;-0.73;56.44
75838;SHT30;64480;52.040;113.502;2023-02-26T11:31:15;-1.20;56.53
75838;SHT30;64480;52.040;113.502;2023-02-26T11:34:34;-1.42;56.94
75838;SHT30;64480;52.040;113.502;2023-02-26T11:37:52;-1.52;57.34
75838;SHT30;64480;52.040;113.502;2023-02-26T11:41:22;-1.66;57.86
75838;SHT30;64480;52.040;113.502;2023-02-26T11:45:06;-1.72;57.98
75838;SHT30;64480;52.040;113.502;2023-02-26T11:48:32;-1.75;58.04
75838;SHT30;64480;52.040;113.502;2023-02-26T11:52:05;-1.83;58.43
75838;SHT30;64480;52.040;113.502;2023-02-26T11:55:32;-1.69;58.85
75838;SHT30;64480;52.040;113.502;2023-02-26T11:58:52;-1.69;59.05
75838;SHT30;64480;52.040;113.502;2023-02-26T12:02:17;-1.63;59.14
75838;SHT30;64480;52.040;113.502;2023-02-26T12:05:23;-1.58;58.49
75838;SHT30;64480;52.040;113.502;2023-02-26T12:08:51;-1.51;58.66
75838;SHT30;64480;52.040;113.502;2023-02-26T12:15:36;-1.47;59.15
75838;SHT30;64480;52.040;113.502;2023-02-26T12:19:07;-1.48;59.62
75838;SHT30;64480;52.040;113.502;2023-02-26T12:26:14;-1.68;59.91
75838;SHT30;64480;52.040;113.502;2023-02-26T12:29:37;-1.79;59.28
75838;SHT30;64480;52.040;113.502;2023-02-26T12:40:55;-1.93;59.04
75838;SHT30;64480;52.040;113.502;2023-02-26T12:44:41;-1.93;59.33
75838;SHT30;64480;52.040;113.502;2023-02-26T12:55:50;-2.04;58.87
75838;SHT30;64480;52.040;113.502;2023-02-26T13:06:39;-2.03;59.34
75838;SHT30;64480;52.040;113.502;2023-02-26T13:14:17;-2.00;58.84
75838;SHT30;64480;52.040;113.502;2023-02-26T13:21:18;-1.90;58.00
75838;SHT30;64480;52.040;113.502;2023-02-26T13:24:43;-1.94;58.97
75838;SHT30;64480;52.040;113.502;2023-02-26T13:32:25;-2.08;59.30
75838;SHT30;64480;52.040;113.502;2023-02-26T13:35:36;-2.22;58.11
75838;SHT30;64480;52.040;113.502;2023-02-26T13:39:20;-2.37;58.28
75838;SHT30;64480;52.040;113.502;2023-02-26T13:42:50;-2.48;58.72
75838;SHT30;64480;52.040;113.502;2023-02-26T13:57:06;-2.68;58.89
75838;SHT30;64480;52.040;113.502;2023-02-26T14:00:32;-2.83;58.84
75838;SHT30;64480;52.040;113.502;2023-02-26T14:14:43;-2.81;60.03
75838;SHT30;64480;52.040;113.502;2023-02-26T14:18:01;-2.73;59.85
75838;SHT30;64480;52.040;113.502;2023-02-26T14:25:13;-2.59;59.63
75838;SHT30;64480;52.040;113.502;2023-02-26T14:31:54;-2.62;61.14
75838;SHT30;64480;52.040;113.502;2023-02-26T14:35:20;-2.63;62.73
75838;SHT30;64480;52.040;113.502;2023-02-26T14:38:36;-2.63;61.75
75838;SHT30;64480;52.040;113.502;2023-02-26T14:42:04;-2.55;61.67
75838;SHT30;64480;52.040;113.502;2023-02-26T14:45:31;-2.60;61.39
75838;SHT30;64480;52.040;113.502;2023-02-26T14:48:40;-2.63;60.79
75838;SHT30;64480;52.040;113.502;2023-02-26T15:13:08;-3.01;58.40
75838;SHT30;64480;52.040;113.502;2023-02-26T15:20:03;-2.96;58.39
75838;SHT30;64480;52.040;113.502;2023-02-26T15:23:32;-2.91;58.33
75838;SHT30;64480;52.040;113.502;2023-02-26T15:26:53;-2.83;58.43
75838;SHT30;64480;52.040;113.502;2023-02-26T15:30:05;-2.84;58.56
75838;SHT30;64480;52.040;113.502;2023-02-26T15:33:14;-2.77;58.39
75838;SHT30;64480;52.040;113.502;2023-02-26T15:36:33;-2.73;58.77
75838;SHT30;64480;52.040;113.502;2023-02-26T15:39:40;-2.68;59.15
75838;SHT30;64480;52.040;113.502;2023-02-26T15:42:53;-2.68;60.14
75838;SHT30;64480;52.040;113.502;2023-02-26T15:46:11;-2.68;59.09
75838;SHT30;64480;52.040;113.502;2023-02-26T15:49:39;-2.59;57.54
75838;SHT30;64480;52.040;113.502;2023-02-26T15:52:50;-2.53;57.56
75838;SHT30;64480;52.040;113.502;2023-02-26T15:55:57;-2.48;57.95
75838;SHT30;64480;52.040;113.502;2023-02-26T15:59:25;-2.35;57.74
75838;SHT30;64480;52.040;113.502;2023-02-26T16:02:31;-2.31;57.63
75838;SHT30;64480;52.040;113.502;2023-02-26T16:05:37;-2.30;57.88
75838;SHT30;64480;52.040;113.502;2023-02-26T16:08:45;-2.25;57.69
75838;SHT30;64480;52.040;113.502;2023-02-26T16:11:59;-2.31;57.65
75838;SHT30;64480;52.040;113.502;2023-02-26T16:15:35;-2.32;57.56
75838;SHT30;64480;52.040;113.502;2023-02-26T16:18:41;-2.24;57.20
75838;SHT30;64480;52.040;113.502;2023-02-26T16:21:47;-2.18;57.26
75838;SHT30;64480;52.040;113.502;2023-02-26T16:25:12;-2.17;57.31
75838;SHT30;64480;52.040;113.502;2023-02-26T16:28:47;-2.20;57.82
75838;SHT30;64480;52.040;113.502;2023-02-26T16:31:56;-2.20;57.65
75838;SHT30;64480;52.040;113.502;2023-02-26T16:35:15;-2.17;57.97
75838;SHT30;64480;52.040;113.502;2023-02-26T16:38:44;-2.25;58.29
75838;SHT30;64480;52.040;113.502;2023-02-26T16:42:08;-2.27;57.29
75838;SHT30;64480;52.040;113.502;2023-02-26T16:48:54;-2.53;56.01
75838;SHT30;64480;52.040;113.502;2023-02-26T16:52:00;-2.62;56.07
75838;SHT30;64480;52.040;113.502;2023-02-26T16:55:11;-2.62;56.15
75838;SHT30;64480;52.040;113.502;2023-02-26T16:58:24;-2.62;56.08
75838;SHT30;64480;52.040;113.502;2023-02-26T17:05:29;-2.72;56.23
75838;SHT30;64480;52.040;113.502;2023-02-26T17:08:53;-2.66;56.42
75838;SHT30;64480;52.040;113.502;2023-02-26T17:12:29;-2.60;56.75
75838;SHT30;64480;52.040;113.502;2023-02-26T17:15:46;-2.65;56.97
75838;SHT30;64480;52.040;113.502;2023-02-26T17:18:51;-2.58;57.00
75838;SHT30;64480;52.040;113.502;2023-02-26T17:21:57;-2.59;56.27
75838;SHT30;64480;52.040;113.502;2023-02-26T17:25:25;-2.63;55.84
75838;SHT30;64480;52.040;113.502;2023-02-26T17:28:38;-2.75;55.67
75838;SHT30;64480;52.040;113.502;2023-02-26T17:31:51;-2.88;55.23
75838;SHT30;64480;52.040;113.502;2023-02-26T17:34:57;-2.93;56.08
75838;SHT30;64480;52.040;113.502;2023-02-26T17:38:00;-2.98;56.35
75838;SHT30;64480;52.040;113.502;2023-02-26T17:41:16;-3.05;56.36
75838;SHT30;64480;52.040;113.502;2023-02-26T17:44:23;-3.05;56.93
75838;SHT30;64480;52.040;113.502;2023-02-26T17:47:31;-2.98;57.28
75838;SHT30;64480;52.040;113.502;2023-02-26T17:50:52;-2.98;57.81
75838;SHT30;64480;52.040;113.502;2023-02-26T17:53:58;-2.93;57.00
75838;SHT30;64480;52.040;113.502;2023-02-26T17:57:06;-2.96;56.86
75838;SHT30;64480;52.040;113.502;2023-02-26T18:00:14;-3.08;56.86
75838;SHT30;64480;52.040;113.502;2023-02-26T18:03:34;-3.15;56.96
75838;SHT30;64480;52.040;113.502;2023-02-26T18:06:44;-3.39;56.96
75838;SHT30;64480;52.040;113.502;2023-02-26T18:10:02;-3.67;58.10
75838;SHT30;64480;52.040;113.502;2023-02-26T18:13:13;-3.67;58.52
75838;SHT30;64480;52.040;113.502;2023-02-26T18:16:20;-3.80;58.40
75838;SHT30;64480;52.040;113.502;2023-02-26T18:19:38;-3.79;58.74
75838;SHT30;64480;52.040;113.502;2023-02-26T18:22:55;-3.70;58.42
75838;SHT30;64480;52.040;113.502;2023-02-26T18:26:15;-3.81;58.89
75838;SHT30;64480;52.040;113.502;2023-02-26T18:29:20;-3.73;59.33
75838;SHT30;64480;52.040;113.502;2023-02-26T18:32:27;-3.59;59.67
75838;SHT30;64480;52.040;113.502;2023-02-26T18:35:33;-3.52;59.54
75838;SHT30;64480;52.040;113.502;2023-02-26T18:38:38;-3.51;59.36
75838;SHT30;64480;52.040;113.502;2023-02-26T18:41:46;-3.52;59.85
75838;SHT30;64480;52.040;113.502;2023-02-26T18:44:52;-3.45;59.64
75838;SHT30;64480;52.040;113.502;2023-02-26T18:48:13;-3.39;59.48
75838;SHT30;64480;52.040;113.502;2023-02-26T18:51:25;-3.41;59.36
75838;SHT30;64480;52.040;113.502;2023-02-26T18:54:43;-3.52;59.33
75838;SHT30;64480;52.040;113.502;2023-02-26T18:58:00;-3.67;59.66
75838;SHT30;64480;52.040;113.502;2023-02-26T19:01:12;-3.67;59.75
75838;SHT30;64480;52.040;113.502;2023-02-26T19:04:16;-3.53;59.26
75838;SHT30;64480;52.040;113.502;2023-02-26T19:07:23;-3.48;58.74
75838;SHT30;64480;52.040;113.502;2023-02-26T19:10:31;-3.52;58.54
75838;SHT30;64480;52.040;113.502;2023-02-26T19:13:36;-3.67;58.71
75838;SHT30;64480;52.040;113.502;2023-02-26T19:16:53;-3.71;59.08
75838;SHT30;64480;52.040;113.502;2023-02-26T19:20:05;-3.70;58.84
75838;SHT30;64480;52.040;113.502;2023-02-26T19:23:11;-3.86;58.85
75838;SHT30;64480;52.040;113.502;2023-02-26T19:26:16;-4.05;59.63
75838;SHT30;64480;52.040;113.502;2023-02-26T19:29:33;-4.15;60.09
75838;SHT30;64480;52.040;113.502;2023-02-26T19:32:52;-4.24;60.02
75838;SHT30;64480;52.040;113.502;2023-02-26T19:36:04;-4.36;60.25
75838;SHT30;64480;52.040;113.502;2023-02-26T19:39:21;-4.54;60.72
75838;SHT30;64480;52.040;113.502;2023-02-26T19:42:26;-4.53;61.59
75838;SHT30;64480;52.040;113.502;2023-02-26T19:45:40;-4.37;61.15
75838;SHT30;64480;52.040;113.502;2023-02-26T19:48:44;-4.26;60.77
75838;SHT30;64480;52.040;113.502;2023-02-26T19:52:01;-4.08;60.14
75838;SHT30;64480;52.040;113.502;2023-02-26T19:55:19;-4.09;59.91
75838;SHT30;64480;52.040;113.502;2023-02-26T19:58:36;-4.18;59.89
75838;SHT30;64480;52.040;113.502;2023-02-26T20:02:26;-4.16;60.19
75838;SHT30;64480;52.040;113.502;2023-02-26T20:05:43;-4.16;60.11
75838;SHT30;64480;52.040;113.502;2023-02-26T20:09:03;-4.19;60.28
75838;SHT30;64480;52.040;113.502;2023-02-26T20:12:25;-4.22;60.41
75838;SHT30;64480;52.040;113.502;2023-02-26T20:15:42;-4.33;60.87
75838;SHT30;64480;52.040;113.502;2023-02-26T20:18:46;-4.32;60.79
75838;SHT30;64480;52.040;113.502;2023-02-26T20:21:52;-4.37;60.86
75838;SHT30;64480;52.040;113.502;2023-02-26T20:25:09;-4.41;60.98
75838;SHT30;64480;52.040;113.502;2023-02-26T20:28:28;-4.33;60.83
75838;SHT30;64480;52.040;113.502;2023-02-26T20:31:37;-4.33;60.65
75838;SHT30;64480;52.040;113.502;2023-02-26T20:34:54;-4.32;60.51
75838;SHT30;64480;52.040;113.502;2023-02-26T20:38:00;-4.26;60.20
75838;SHT30;64480;52.040;113.502;2023-02-26T20:41:05;-4.21;60.09
75838;SHT30;64480;52.040;113.502;2023-02-26T20:44:13;-4.14;59.69
75838;SHT30;64480;52.040;113.502;2023-02-26T20:47:23;-4.16;59.63
75838;SHT30;64480;52.040;113.502;2023-02-26T20:50:33;-4.26;59.93
75838;SHT30;64480;52.040;113.502;2023-02-26T20:53:51;-4.30;60.52
75838;SHT30;64480;52.040;113.502;2023-02-26T20:56:58;-4.35;60.67
75838;SHT30;64480;52.040;113.502;2023-02-26T21:00:17;-4.37;60.70
75838;SHT30;64480;52.040;113.502;2023-02-26T21:03:34;-4.36;60.98
75838;SHT30;64480;52.040;113.502;2023-02-26T21:06:52;-4.42;60.89
75838;SHT30;64480;52.040;113.502;2023-02-26T21:09:58;-4.45;61.03
75838;SHT30;64480;52.040;113.502;2023-02-26T21:13:06;-4.43;61.11
75838;SHT30;64480;52.040;113.502;2023-02-26T21:16:23;-4.39;61.00
75838;SHT30;64480;52.040;113.502;2023-02-26T21:19:29;-4.36;61.09
75838;SHT30;64480;52.040;113.502;2023-02-26T21:22:35;-4.36;61.23
75838;SHT30;64480;52.040;113.502;2023-02-26T21:25:46;-4.36;61.84
75838;SHT30;64480;52.040;113.502;2023-02-26T21:28:53;-4.25;62.19
75838;SHT30;64480;52.040;113.502;2023-02-26T21:32:00;-4.14;62.77
75838;SHT30;64480;52.040;113.502;2023-02-26T21:35:18;-3.98;63.63
75838;SHT30;64480;52.040;113.502;2023-02-26T21:38:39;-3.83;66.95
75838;SHT30;64480;52.040;113.502;2023-02-26T21:41:58;-3.34;71.94
75838;SHT30;64480;52.040;113.502;2023-02-26T21:45:04;-2.84;75.11
75838;SHT30;64480;52.040;113.502;2023-02-26T21:48:09;-2.48;76.41
75838;SHT30;64480;52.040;113.502;2023-02-26T21:51:16;-2.24;76.88
75838;SHT30;64480;52.040;113.502;2023-02-26T21:54:28;-2.01;77.58
75838;SHT30;64480;52.040;113.502;2023-02-26T21:57:46;-1.85;77.51
75838;SHT30;64480;52.040;113.502;2023-02-26T22:01:03;-1.73;77.51
75838;SHT30;64480;52.040;113.502;2023-02-26T22:04:23;-1.68;77.63
75838;SHT30;64480;52.040;113.502;2023-02-26T22:07:43;-1.59;77.88
75838;SHT30;64480;52.040;113.502;2023-02-26T22:11:09;-1.52;77.50
75838;SHT30;64480;52.040;113.502;2023-02-26T22:14:27;-1.49;77.55
75838;SHT30;64480;52.040;113.502;2023-02-26T22:17:44;-1.44;77.64
75838;SHT30;64480;52.040;113.502;2023-02-26T22:21:00;-1.37;77.47
75838;SHT30;64480;52.040;113.502;2023-02-26T22:24:09;-1.34;77.64
75838;SHT30;64480;52.040;113.502;2023-02-26T22:27:28;-1.31;77.98
75838;SHT30;64480;52.040;113.502;2023-02-26T22:30:45;-1.30;78.38
75838;SHT30;64480;52.040;113.502;2023-02-26T22:33:56;-1.32;78.63
75838;SHT30;64480;52.040;113.502;2023-02-26T22:37:02;-1.28;78.72
75838;SHT30;64480;52.040;113.502;2023-02-26T22:40:20;-1.25;78.86
75838;SHT30;64480;52.040;113.502;2023-02-26T22:43:24;-1.25;79.02
75838;SHT30;64480;52.040;113.502;2023-02-26T22:46:42;-1.25;78.92
75838;SHT30;64480;52.040;113.502;2023-02-26T22:49:58;-1.25;79.01
75838;SHT30;64480;52.040;113.502;2023-02-26T22:53:08;-1.25;79.29
75838;SHT30;64480;52.040;113.502;2023-02-26T22:56:14;-1.27;79.41
75838;SHT30;64480;52.040;113.502;2023-02-26T22:59:31;-1.27;79.18
75838;SHT30;64480;52.040;113.502;2023-02-26T23:02:49;-1.30;79.24
75838;SHT30;64480;52.040;113.502;2023-02-26T23:06:06;-1.30;79.05
75838;SHT30;64480;52.040;113.502;2023-02-26T23:09:24;-1.31;78.98
75838;SHT30;64480;52.040;113.502;2023-02-26T23:12:42;-1.35;79.11
75838;SHT30;64480;52.040;113.502;2023-02-26T23:15:47;-1.35;79.22
75838;SHT30;64480;52.040;113.502;2023-02-26T23:18:58;-1.32;79.20
75838;SHT30;64480;52.040;113.502;2023-02-26T23:22:03;-1.40;78.96
75838;SHT30;64480;52.040;113.502;2023-02-26T23:25:10;-1.35;79.25
75838;SHT30;64480;52.040;113.502;2023-02-26T23:28:16;-1.38;79.36
75838;SHT30;64480;52.040;113.502;2023-02-26T23:31:19;-1.38;79.29
75838;SHT30;64480;52.040;113.502;2023-02-26T23:34:25;-1.34;79.15
75838;SHT30;64480;52.040;113.502;2023-02-26T23:37:29;-1.41;78.98